Time;durP1;ratioP1;P1;durP2;ratioP2;P2;SDS_P1;SDS_P2;PMS_P1;PMS_P2;Temp;Humidity;BMP_temperature;BMP_pressure;BME280_temperature;BME280_humidity;BME280_pressure;Samples;Min_cycle;Max_cycle;Signal;HPM_P1;HPM_P2
2021/12/13 00:00:59;;;;;;;3.13;2.90;;;;;;;3.50;63.58;94531.69;5085405;28;20244;-71
2021/12/13 00:03:26;;;;;;;3.60;3.40;;;;;;;3.65;63.00;94540.50;5085008;28;20173;-70
2021/12/13 00:06:10;;;;;;;2.40;2.20;;;;;;;3.42;63.77;94536.84;5086205;28;20174;-71
2021/12/13 00:08:38;;;;;;;3.07;2.87;;;;;;;3.04;64.62;94546.63;5086273;28;20403;-70
2021/12/13 00:11:15;;;;;;;4.97;3.33;;;;;;;3.25;64.53;94547.06;5086136;28;20412;-71
2021/12/13 00:13:51;;;;;;;2.80;2.60;;;;;;;3.18;64.51;94542.66;5086430;28;20503;-70
2021/12/13 00:16:29;;;;;;;3.40;3.00;;;;;;;3.23;64.42;94545.63;5086860;28;20408;-70
2021/12/13 00:18:58;;;;;;;1.70;1.60;;;;;;;3.22;64.32;94554.31;5085168;28;21038;-71
2021/12/13 00:21:31;;;;;;;3.10;2.90;;;;;;;3.09;63.88;94552.13;5085441;28;20412;-71
2021/12/13 00:24:32;;;;;;;2.87;2.70;;;;;;;3.42;63.83;94550.56;5085189;28;20555;-71
2021/12/13 00:27:03;;;;;;;2.03;1.87;;;;;;;3.39;62.88;94550.06;5080497;28;20416;-71
2021/12/13 00:29:56;;;;;;;2.37;2.20;;;;;;;3.30;63.37;94552.59;5085141;28;20403;-70
2021/12/13 00:32:46;;;;;;;3.43;3.23;;;;;;;3.69;62.89;94552.16;5085364;28;20511;-72
2021/12/13 00:35:19;;;;;;;2.70;2.50;;;;;;;2.68;63.97;94544.06;5083631;28;20456;-71
2021/12/13 00:37:49;;;;;;;2.80;2.60;;;;;;;3.41;62.01;94548.94;5085339;28;20416;-71
2021/12/13 00:40:38;;;;;;;2.07;1.97;;;;;;;2.79;63.71;94554.16;5085298;28;20894;-71
2021/12/13 00:43:37;;;;;;;2.80;2.60;;;;;;;3.13;63.30;94556.06;5085291;28;20416;-71
2021/12/13 00:46:07;;;;;;;3.37;3.13;;;;;;;2.84;64.62;94557.09;5073299;28;20419;-71
2021/12/13 00:48:37;;;;;;;3.03;2.83;;;;;;;3.37;62.25;94554.59;5085136;28;20416;-71
2021/12/13 00:51:14;;;;;;;2.93;2.73;;;;;;;2.77;63.64;94550.09;5084887;28;20166;-71
2021/12/13 00:53:46;;;;;;;3.57;3.27;;;;;;;3.35;63.21;94553.94;5083506;28;20443;-71
2021/12/13 00:56:50;;;;;;;3.10;2.90;;;;;;;3.35;62.57;94546.97;5084828;28;20914;-70
2021/12/13 00:59:29;;;;;;;2.37;1.97;;;;;;;3.01;62.74;94547.69;5084690;28;20399;-71
2021/12/13 01:02:09;;;;;;;2.53;2.33;;;;;;;3.54;61.63;94552.91;5084827;28;20418;-71
2021/12/13 01:04:56;;;;;;;2.33;2.23;;;;;;;2.93;62.97;94545.06;5086755;28;20377;-71
2021/12/13 01:07:56;;;;;;;2.87;2.67;;;;;;;3.52;61.44;94545.28;5088642;28;20483;-71
2021/12/13 01:10:50;;;;;;;3.13;2.83;;;;;;;3.26;62.33;94535.78;5088556;28;20500;-71
2021/12/13 01:13:22;;;;;;;4.60;2.87;;;;;;;3.72;61.56;94540.72;5088787;28;20392;-71
2021/12/13 01:21:58;;;;;;;2.90;2.50;;;;;;;3.51;62.63;94538.50;5084986;28;20412;-71
2021/12/13 01:27:31;;;;;;;3.23;2.60;;;;;;;3.18;63.28;94535.72;5077914;28;20539;-72
2021/12/13 01:29:57;;;;;;;2.20;2.07;;;;;;;3.46;62.69;94536.38;5088291;28;20479;-72
2021/12/13 01:32:24;;;;;;;2.30;2.20;;;;;;;3.94;61.34;94544.50;5088180;28;20407;-72
2021/12/13 01:34:50;;;;;;;4.13;3.83;;;;;;;3.35;62.87;94538.41;5087914;28;20194;-72
2021/12/13 01:37:17;;;;;;;3.20;2.90;;;;;;;3.40;62.42;94542.16;5088306;28;20416;-72
2021/12/13 01:39:46;;;;;;;3.27;3.07;;;;;;;3.64;62.12;94541.50;5088217;28;20170;-72
2021/12/13 01:42:29;;;;;;;3.03;2.73;;;;;;;3.65;62.45;94544.88;5088216;28;20514;-72
2021/12/13 01:44:59;;;;;;;3.27;3.07;;;;;;;3.71;61.92;94550.22;5088048;28;20387;-72
2021/12/13 01:47:28;;;;;;;2.80;2.60;;;;;;;3.60;61.85;94545.31;5088132;28;20446;-72
2021/12/13 01:50:44;;;;;;;2.87;2.67;;;;;;;3.46;63.52;94543.31;5087717;28;20462;-72
2021/12/13 01:53:10;;;;;;;3.33;3.03;;;;;;;3.51;63.71;94541.91;5066234;28;20424;-72
2021/12/13 01:55:40;;;;;;;2.00;1.90;;;;;;;2.85;65.27;94548.41;5065664;28;20540;-72
2021/12/13 01:58:35;;;;;;;3.80;3.50;;;;;;;3.28;64.41;94544.19;5078314;28;20465;-72
2021/12/13 02:01:09;;;;;;;2.30;2.20;;;;;;;3.22;64.96;94543.97;5087688;28;20420;-71
2021/12/13 02:03:47;;;;;;;3.70;1.90;;;;;;;3.23;65.47;94551.59;5087871;28;20372;-72
2021/12/13 02:06:28;;;;;;;2.77;2.63;;;;;;;3.59;64.23;94542.91;5087526;28;20415;-72
2021/12/13 02:08:57;;;;;;;4.23;3.23;;;;;;;3.11;65.48;94542.44;5086353;28;20411;-72
2021/12/13 02:11:25;;;;;;;2.73;2.10;;;;;;;2.84;66.40;94551.94;5087585;28;20412;-72
2021/12/13 02:14:07;;;;;;;2.60;2.50;;;;;;;3.05;66.76;94549.03;5087242;28;20459;-72
2021/12/13 02:16:58;;;;;;;3.10;2.90;;;;;;;3.02;66.82;94545.94;5086618;28;20478;-72
2021/12/13 02:19:39;;;;;;;2.87;2.67;;;;;;;3.09;66.80;94541.78;5087220;28;20217;-72
2021/12/13 02:22:19;;;;;;;2.80;2.60;;;;;;;3.01;67.32;94539.16;5087332;28;20482;-72
2021/12/13 02:24:45;;;;;;;3.03;2.70;;;;;;;2.79;67.86;94541.25;5087251;28;20406;-72
2021/12/13 02:27:10;;;;;;;2.23;2.13;;;;;;;3.06;66.66;94536.94;5087300;28;20416;-72
2021/12/13 02:29:38;;;;;;;2.80;2.47;;;;;;;2.93;67.47;94539.91;5087060;28;20176;-72
2021/12/13 02:32:09;;;;;;;2.80;2.60;;;;;;;3.05;66.51;94535.28;5088088;28;20178;-71
2021/12/13 02:34:41;;;;;;;3.00;2.70;;;;;;;3.07;66.58;94547.13;5087184;28;20440;-72
2021/12/13 02:37:09;;;;;;;2.13;2.00;;;;;;;3.24;65.91;94542.84;5087790;28;20416;-71
2021/12/13 02:39:44;;;;;;;3.50;2.00;;;;;;;3.23;65.51;94545.63;5087212;28;20404;-72
2021/12/13 02:42:11;;;;;;;2.45;2.35;;;;;;;2.43;68.04;94546.41;5087607;28;20415;-71
2021/12/13 02:44:44;;;;;;;2.93;2.77;;;;;;;2.66;67.54;94549.38;5087554;28;20170;-72
2021/12/13 02:47:28;;;;;;;5.73;3.63;;;;;;;2.69;67.23;94551.66;5086833;28;20411;-72
2021/12/13 02:49:54;;;;;;;2.90;2.70;;;;;;;3.00;65.70;94550.44;5087054;28;20416;-71
2021/12/13 02:52:24;;;;;;;2.60;2.40;;;;;;;2.79;66.32;94549.00;5087198;28;20411;-71
2021/12/13 02:54:54;;;;;;;2.80;2.60;;;;;;;2.81;66.35;94549.66;5086931;28;20485;-71
2021/12/13 02:57:28;;;;;;;2.80;2.60;;;;;;;2.64;68.27;94553.88;5087026;28;20502;-72
2021/12/13 03:00:26;;;;;;;2.60;2.40;;;;;;;2.85;66.85;94542.44;5086733;28;20396;-71
2021/12/13 03:02:55;;;;;;;2.93;2.73;;;;;;;3.09;66.70;94552.13;5076835;28;20444;-72
2021/12/13 03:05:29;;;;;;;2.35;2.25;;;;;;;2.77;67.83;94550.09;5085579;28;20830;-71
2021/12/13 03:07:59;;;;;;;3.40;3.20;;;;;;;2.97;67.20;94545.59;5086980;28;20525;-72
2021/12/13 03:10:33;;;;;;;2.92;2.72;;;;;;;2.89;67.27;94556.66;5086954;28;20162;-71
2021/12/13 03:12:59;;;;;;;2.92;2.72;;;;;;;2.69;67.69;94553.41;5087157;28;20575;-72
2021/12/13 03:15:28;;;;;;;3.63;3.40;;;;;;;2.74;68.90;94558.97;5086695;28;20250;-72
2021/12/13 03:18:20;;;;;;;3.92;3.58;;;;;;;2.96;68.16;94559.44;5086797;28;20196;-72
2021/12/13 03:21:17;;;;;;;5.28;4.60;;;;;;;3.05;67.82;94553.38;5086455;28;20206;-72
2021/12/13 03:23:47;;;;;;;3.90;3.70;;;;;;;2.96;68.38;94549.94;5086488;28;20154;-71
2021/12/13 03:26:53;;;;;;;3.75;3.55;;;;;;;3.48;66.61;94544.78;5086695;28;20170;-71
2021/12/13 03:29:26;;;;;;;4.10;3.80;;;;;;;3.07;68.82;94552.28;5085406;28;20166;-72
2021/12/13 03:31:55;;;;;;;3.95;3.65;;;;;;;2.74;68.98;94561.53;5086870;28;20835;-72
2021/12/13 03:34:35;;;;;;;4.00;3.60;;;;;;;3.00;68.35;94555.59;5085118;28;20249;-71
2021/12/13 03:37:11;;;;;;;3.47;3.17;;;;;;;2.90;68.87;94556.53;5086336;28;20423;-71
2021/12/13 03:39:43;;;;;;;4.17;3.63;;;;;;;3.01;68.72;94565.00;5084440;28;20441;-72
2021/12/13 03:42:16;;;;;;;3.20;2.90;;;;;;;2.81;69.02;94564.34;5084096;28;20919;-72
2021/12/13 03:44:47;;;;;;;3.30;3.10;;;;;;;2.64;69.60;94568.56;5085641;28;20158;-72
2021/12/13 03:47:34;;;;;;;3.63;3.33;;;;;;;2.66;69.28;94564.88;5086036;28;20472;-72
2021/12/13 03:50:06;;;;;;;4.13;3.75;;;;;;;2.82;68.84;94560.81;5085622;28;20210;-71
2021/12/13 03:52:33;;;;;;;2.20;2.10;;;;;;;2.71;69.64;94561.84;5085586;28;20162;-72
2021/12/13 03:55:01;;;;;;;3.50;3.20;;;;;;;2.73;69.86;94567.66;5085445;28;20221;-72
2021/12/13 03:57:28;;;;;;;3.30;2.77;;;;;;;2.92;69.52;94572.69;5085645;28;20169;-71
2021/12/13 03:59:54;;;;;;;2.83;2.63;;;;;;;3.13;68.84;94561.22;5085233;28;20438;-72
2021/12/13 04:02:31;;;;;;;4.60;4.20;;;;;;;2.85;69.31;94568.28;5083892;28;20174;-71
2021/12/13 04:05:04;;;;;;;5.28;4.78;;;;;;;3.04;68.92;94569.88;5085118;28;20404;-71
2021/12/13 04:07:35;;;;;;;4.15;3.25;;;;;;;2.77;69.97;94565.59;5083847;28;20706;-71
2021/12/13 04:10:19;;;;;;;2.85;2.65;;;;;;;2.80;69.32;94560.94;5083648;28;20173;-71
2021/12/13 04:12:49;;;;;;;3.17;2.97;;;;;;;2.77;69.94;94566.44;5085311;28;20174;-70
2021/12/13 04:15:51;;;;;;;4.23;3.40;;;;;;;2.83;69.96;94568.41;5084760;28;20470;-72
2021/12/13 04:21:12;;;;;;;3.72;3.50;;;;;;;2.85;69.40;94571.66;5085072;28;20466;-70
2021/12/13 04:23:39;;;;;;;1.93;1.83;;;;;;;2.98;70.06;94570.44;5084947;28;20264;-71
2021/12/13 04:26:08;;;;;;;2.50;2.30;;;;;;;2.81;70.06;94578.09;5085042;28;20161;-70
2021/12/13 04:28:44;;;;;;;6.05;4.78;;;;;;;3.11;69.54;94578.63;5084700;28;20212;-71
2021/12/13 04:31:16;;;;;;;3.77;3.47;;;;;;;2.90;69.43;94576.38;5044837;28;20171;-71
2021/12/13 04:33:47;;;;;;;4.93;4.37;;;;;;;3.01;69.08;94583.88;5044684;28;20402;-71
2021/12/13 04:36:19;;;;;;;5.60;5.10;;;;;;;3.07;68.57;94588.47;5044653;28;20429;-71
2021/12/13 04:38:52;;;;;;;4.10;3.80;;;;;;;2.57;70.11;94593.34;5044255;28;20485;-71
2021/12/13 04:41:30;;;;;;;4.97;4.47;;;;;;;2.76;71.12;94602.75;5044699;28;20227;-71
2021/12/13 04:44:04;;;;;;;6.03;5.45;;;;;;;2.95;69.88;94594.84;5044796;28;20386;-72
2021/12/13 04:46:31;;;;;;;5.65;5.20;;;;;;;3.11;69.28;94607.06;5045115;28;20171;-71
2021/12/13 04:49:03;;;;;;;6.20;5.60;;;;;;;2.76;70.34;94605.31;5044572;28;20194;-71
2021/12/13 04:51:43;;;;;;;4.83;4.43;;;;;;;2.64;70.34;94604.72;5044683;28;20422;-71
2021/12/13 04:54:11;;;;;;;5.80;5.30;;;;;;;3.16;69.78;94591.94;5044866;28;21026;-71
2021/12/13 04:56:38;;;;;;;5.43;4.88;;;;;;;2.93;69.80;94581.25;5043472;28;20497;-71
2021/12/13 04:59:06;;;;;;;4.07;3.67;;;;;;;2.79;70.52;94598.09;5043185;28;20199;-72
2021/12/13 05:01:33;;;;;;;6.20;5.60;;;;;;;2.61;71.43;94598.06;5044699;28;20414;-73
2021/12/13 05:04:00;;;;;;;5.75;5.25;;;;;;;3.31;69.44;94600.75;5044394;28;20233;-72
2021/12/13 05:06:33;;;;;;;5.77;5.37;;;;;;;3.17;69.48;94598.75;5044668;28;20180;-71
2021/12/13 05:09:03;;;;;;;4.63;4.07;;;;;;;2.61;71.14;94615.34;5044492;28;20409;-72
2021/12/13 05:11:38;;;;;;;7.67;6.87;;;;;;;2.88;71.04;94604.13;5043011;28;20421;-72
2021/12/13 05:14:05;;;;;;;7.33;6.50;;;;;;;3.34;69.75;94610.00;5044208;28;20441;-72
2021/12/13 05:16:54;;;;;;;4.60;4.20;;;;;;;3.18;69.39;94608.09;5044389;28;20414;-71
2021/12/13 05:19:36;;;;;;;7.17;6.47;;;;;;;3.50;68.90;94604.13;5042709;28;20466;-72
2021/12/13 05:22:05;;;;;;;6.33;5.47;;;;;;;3.02;70.69;94607.97;5044826;28;20421;-71
2021/12/13 05:24:35;;;;;;;7.00;6.40;;;;;;;3.03;70.00;94612.19;5042778;28;20410;-71
2021/12/13 05:27:08;;;;;;;8.87;5.73;;;;;;;2.68;70.92;94622.38;5044441;28;20410;-71
2021/12/13 05:29:35;;;;;;;4.75;4.45;;;;;;;2.75;70.67;94617.41;5059366;28;20612;-72
2021/12/13 05:32:24;;;;;;;7.80;5.90;;;;;;;2.99;69.73;94618.59;5044281;28;20186;-72
2021/12/13 05:34:57;;;;;;;10.00;7.53;;;;;;;2.96;69.90;94605.97;5044245;28;20446;-72
2021/12/13 05:37:26;;;;;;;6.37;5.77;;;;;;;2.53;70.55;94611.72;5044422;28;20175;-71
2021/12/13 05:39:59;;;;;;;7.47;6.78;;;;;;;3.42;68.51;94628.16;5043796;28;20411;-72
2021/12/13 05:42:36;;;;;;;7.13;6.43;;;;;;;3.06;69.13;94619.66;5044316;28;20184;-72
2021/12/13 05:45:04;;;;;;;7.30;6.60;;;;;;;3.09;69.14;94624.50;5043938;28;20413;-72
2021/12/13 05:47:30;;;;;;;7.10;6.53;;;;;;;3.38;68.24;94621.69;5043794;28;20422;-72
2021/12/13 05:49:55;;;;;;;7.93;7.13;;;;;;;3.26;68.10;94623.69;5043908;28;20410;-71
2021/12/13 05:52:26;;;;;;;7.30;6.53;;;;;;;3.33;68.32;94632.44;5045677;28;20190;-72
2021/12/13 05:54:57;;;;;;;7.17;6.50;;;;;;;3.01;68.74;94634.78;5047570;28;20183;-71
2021/12/13 05:57:27;;;;;;;5.47;4.97;;;;;;;3.23;68.08;94642.09;5048012;28;20414;-71
2021/12/13 06:00:02;;;;;;;7.00;6.40;;;;;;;3.23;67.73;94644.66;5046169;28;20870;-72
2021/12/13 06:03:06;;;;;;;6.30;5.80;;;;;;;3.44;66.91;94639.16;5062814;28;20421;-72
2021/12/13 06:05:42;;;;;;;8.10;7.37;;;;;;;3.43;67.49;94642.72;5045276;28;20417;-71
2021/12/13 06:08:09;;;;;;;7.13;6.53;;;;;;;3.22;68.57;94644.81;5043786;28;20421;-72
2021/12/13 06:10:52;;;;;;;7.10;6.47;;;;;;;3.37;68.05;94647.69;5047262;28;20440;-72
2021/12/13 06:13:43;;;;;;;6.47;5.73;;;;;;;3.10;68.68;94650.22;5047056;28;20156;-72
2021/12/13 06:16:49;;;;;;;6.57;5.63;;;;;;;3.42;68.17;94661.78;5042853;28;21039;-72
2021/12/13 06:19:35;;;;;;;8.20;7.07;;;;;;;3.46;68.08;94652.75;5038691;28;20231;-72
2021/12/13 06:22:11;;;;;;;5.43;4.93;;;;;;;2.63;69.89;94652.19;5047140;28;20205;-71
2021/12/13 06:24:40;;;;;;;4.90;4.45;;;;;;;3.01;68.97;94655.47;5046840;28;20394;-73
2021/12/13 06:27:15;;;;;;;6.67;6.10;;;;;;;3.02;69.41;94662.25;5045442;28;20738;-72
2021/12/13 06:30:07;;;;;;;9.23;8.33;;;;;;;3.25;69.55;94667.81;5045403;28;20436;-74
2021/12/13 06:32:39;;;;;;;9.10;8.20;;;;;;;3.56;68.44;94664.81;5046743;28;20905;-72
2021/12/13 06:35:42;;;;;;;8.52;7.68;;;;;;;3.66;67.77;94673.28;5045143;28;20464;-72
2021/12/13 06:38:20;;;;;;;8.60;7.77;;;;;;;3.83;67.53;94671.59;5045426;28;20187;-72
2021/12/13 06:41:01;;;;;;;8.13;7.07;;;;;;;3.78;68.21;94668.69;5045575;28;20417;-73
2021/12/13 06:43:46;;;;;;;9.30;7.50;;;;;;;3.77;67.87;94675.63;5045170;28;20406;-71
2021/12/13 06:46:12;;;;;;;7.67;6.97;;;;;;;3.45;68.84;94691.72;5045230;28;20430;-72
2021/12/13 06:48:45;;;;;;;8.43;6.77;;;;;;;3.65;69.12;94690.56;5046554;28;20488;-72
2021/12/13 06:51:14;;;;;;;7.70;7.10;;;;;;;3.41;69.49;94692.97;5046188;28;20182;-72
2021/12/13 06:53:59;;;;;;;6.90;6.20;;;;;;;3.17;69.71;94690.97;5045699;28;20496;-72
2021/12/13 06:56:30;;;;;;;8.73;7.93;;;;;;;3.21;69.65;94687.97;5045996;28;20414;-72
2021/12/13 06:58:59;;;;;;;10.85;8.20;;;;;;;3.34;68.62;94697.94;5046361;28;20406;-72
2021/12/13 07:01:29;;;;;;;5.87;5.30;;;;;;;3.22;69.02;94699.91;5046252;28;20187;-72
2021/12/13 07:04:07;;;;;;;5.97;5.10;;;;;;;3.08;70.02;94708.19;5045191;28;20513;-72
2021/12/13 07:06:33;;;;;;;7.57;6.80;;;;;;;2.84;70.23;94706.97;5046627;28;20455;-72
2021/12/13 07:09:23;;;;;;;7.57;6.37;;;;;;;2.92;70.43;94696.75;5046319;28;20950;-72
2021/12/13 07:11:55;;;;;;;8.30;7.43;;;;;;;3.35;69.19;94704.72;5046377;28;20932;-73
2021/12/13 07:14:36;;;;;;;8.77;7.67;;;;;;;3.91;67.44;94698.38;5046251;28;20461;-72
2021/12/13 07:17:30;;;;;;;6.93;6.30;;;;;;;3.41;68.97;94703.31;5046213;28;20470;-73
2021/12/13 07:19:59;;;;;;;10.67;9.00;;;;;;;4.11;66.87;94696.38;5045640;28;20803;-73
2021/12/13 07:22:29;;;;;;;8.33;7.23;;;;;;;3.75;67.61;94703.41;5044800;28;20497;-72
2021/12/13 07:25:22;;;;;;;9.00;8.20;;;;;;;3.89;67.77;94702.09;5046571;28;20402;-72
2021/12/13 07:27:49;;;;;;;12.23;8.30;;;;;;;3.17;69.84;94707.31;5045767;28;20453;-72
2021/12/13 07:30:19;;;;;;;7.53;6.77;;;;;;;3.01;70.70;94704.56;5045942;28;20425;-72
2021/12/13 07:32:53;;;;;;;8.77;7.53;;;;;;;3.10;70.82;94711.44;5046193;28;20422;-72
2021/12/13 07:35:24;;;;;;;10.33;9.33;;;;;;;3.45;69.51;94715.81;5045736;28;20454;-72
2021/12/13 07:37:54;;;;;;;6.20;5.57;;;;;;;3.63;68.49;94718.38;5045903;28;20413;-72
2021/12/13 07:40:49;;;;;;;9.73;8.07;;;;;;;3.28;70.02;94725.22;5045986;28;20920;-72
2021/12/13 07:43:37;;;;;;;8.60;7.80;;;;;;;3.36;69.81;94721.03;5045894;28;20395;-72
2021/12/13 07:46:10;;;;;;;8.95;8.05;;;;;;;3.91;67.49;94726.03;5045615;28;20418;-73
2021/12/13 07:48:39;;;;;;;10.40;8.27;;;;;;;3.38;69.63;94738.06;5045837;28;20198;-72
2021/12/13 07:51:07;;;;;;;7.97;7.10;;;;;;;3.84;67.67;94735.38;5045643;28;20447;-72
2021/12/13 07:53:43;;;;;;;5.83;4.37;;;;;;;3.46;68.78;94732.16;5045736;28;20418;-72
2021/12/13 07:56:11;;;;;;;10.00;9.00;;;;;;;3.49;68.99;94732.66;5045489;28;20430;-72
2021/12/13 07:58:48;;;;;;;10.57;8.70;;;;;;;3.62;69.28;94736.63;5045319;28;20422;-72
2021/12/13 08:01:23;;;;;;;13.50;8.27;;;;;;;3.26;69.21;94732.31;5045230;28;20428;-72
2021/12/13 08:03:54;;;;;;;9.60;8.40;;;;;;;3.28;69.22;94725.22;5044062;28;20417;-72
2021/12/13 08:06:22;;;;;;;7.40;6.73;;;;;;;3.58;68.39;94730.94;5045471;28;20461;-71
2021/12/13 08:08:59;;;;;;;8.53;7.73;;;;;;;3.69;68.31;94728.13;5045376;28;20417;-71
2021/12/13 08:11:36;;;;;;;9.00;8.17;;;;;;;3.94;67.94;94732.69;5045455;28;20415;-72
2021/12/13 08:14:03;;;;;;;8.10;7.20;;;;;;;4.24;66.38;94732.22;5044562;28;20538;-73
2021/12/13 08:16:34;;;;;;;8.07;7.40;;;;;;;3.74;67.66;94734.63;5045300;28;20422;-72
2021/12/13 08:19:31;;;;;;;8.50;7.73;;;;;;;3.37;68.68;94740.78;5045264;28;20553;-72
2021/12/13 08:22:02;;;;;;;7.30;5.70;;;;;;;3.14;70.14;94733.47;5043789;28;20418;-72
2021/12/13 08:24:38;;;;;;;7.40;5.53;;;;;;;3.13;69.86;94734.44;5027712;28;20417;-72
2021/12/13 08:27:10;;;;;;;9.00;7.40;;;;;;;3.42;69.14;94741.16;5045382;28;20466;-73
2021/12/13 08:29:38;;;;;;;5.57;5.17;;;;;;;3.20;69.56;94745.00;5043739;28;20908;-73
2021/12/13 08:32:13;;;;;;;5.30;4.90;;;;;;;3.17;69.65;94738.34;5044976;28;20443;-70
2021/12/13 08:34:46;;;;;;;8.10;7.30;;;;;;;3.16;69.58;94744.47;5061795;28;20894;-72
2021/12/13 08:37:34;;;;;;;7.53;6.90;;;;;;;3.65;68.40;94737.16;5064857;28;20416;-76
2021/12/13 08:40:10;;;;;;;5.43;4.93;;;;;;;3.36;68.41;94747.75;5064679;28;20459;-71
2021/12/13 08:42:42;;;;;;;4.63;4.33;;;;;;;3.22;68.68;94743.88;5064547;28;20468;-73
2021/12/13 08:45:31;;;;;;;7.40;6.63;;;;;;;3.84;67.47;94740.53;5063580;28;20401;-72
2021/12/13 08:48:06;;;;;;;7.53;5.97;;;;;;;3.48;68.57;94741.38;5064774;28;20417;-72
2021/12/13 08:50:36;;;;;;;6.40;5.80;;;;;;;3.66;67.40;94741.38;5064525;28;20162;-71
2021/12/13 08:53:16;;;;;;;5.10;4.60;;;;;;;3.65;67.28;94741.53;5064425;28;20429;-73
2021/12/13 08:55:50;;;;;;;6.73;6.13;;;;;;;3.74;67.69;94732.88;5064577;28;20440;-72
2021/12/13 08:58:21;;;;;;;9.13;8.23;;;;;;;3.79;67.37;94740.16;5064606;28;20424;-72
2021/12/13 09:00:52;;;;;;;6.30;5.70;;;;;;;3.40;67.82;94738.72;5064682;28;20378;-72
2021/12/13 09:03:26;;;;;;;6.03;5.53;;;;;;;3.73;66.72;94739.00;5062875;28;20428;-72
2021/12/13 09:06:01;;;;;;;7.30;6.60;;;;;;;3.67;67.44;94735.22;5063009;28;20423;-72
2021/12/13 09:08:32;;;;;;;8.40;6.67;;;;;;;3.81;66.41;94735.66;5064682;28;20479;-73
2021/12/13 09:11:24;;;;;;;7.43;6.70;;;;;;;3.90;66.42;94738.16;5064566;28;20385;-72
2021/12/13 09:14:15;;;;;;;7.17;5.50;;;;;;;3.91;66.26;94741.56;5064350;28;20409;-72
2021/12/13 09:17:06;;;;;;;7.50;6.80;;;;;;;4.17;65.57;94738.16;5064223;28;20455;-72
2021/12/13 09:19:40;;;;;;;9.37;6.67;;;;;;;3.78;66.88;94741.94;5062768;28;20469;-73
2021/12/13 09:22:23;;;;;;;6.33;4.93;;;;;;;3.59;66.71;94732.59;5064363;28;20398;-72
2021/12/13 09:24:57;;;;;;;6.43;5.87;;;;;;;4.10;65.87;94736.19;5063652;28;20420;-72
2021/12/13 09:27:29;;;;;;;7.70;6.77;;;;;;;4.04;65.40;94739.41;5068222;28;20408;-72
2021/12/13 09:30:18;;;;;;;7.33;6.13;;;;;;;3.61;66.58;94738.41;5068187;28;20451;-72
2021/12/13 09:32:48;;;;;;;6.07;5.57;;;;;;;3.45;67.35;94728.75;5068063;28;20468;-71
2021/12/13 09:35:35;;;;;;;6.73;6.13;;;;;;;3.65;66.90;94729.38;5066213;28;20975;-72
2021/12/13 09:38:22;;;;;;;10.13;7.37;;;;;;;3.70;67.51;94732.34;5066553;28;20424;-71
2021/12/13 09:40:54;;;;;;;9.93;4.60;;;;;;;3.52;68.52;94728.97;5067699;28;20409;-72
2021/12/13 09:43:22;;;;;;;8.73;7.70;;;;;;;4.02;66.92;94728.38;5067731;28;20922;-72
2021/12/13 09:45:53;;;;;;;7.97;6.40;;;;;;;3.57;67.56;94726.75;5066349;28;20409;-72
2021/12/13 09:48:24;;;;;;;7.97;6.00;;;;;;;3.67;67.43;94724.06;5067581;28;20513;-72
2021/12/13 09:50:54;;;;;;;6.80;3.80;;;;;;;3.93;66.65;94721.53;5067525;28;20389;-72
2021/12/13 09:53:31;;;;;;;6.97;6.30;;;;;;;3.77;67.41;94726.56;5067506;28;20419;-72
2021/12/13 09:55:59;;;;;;;8.53;7.83;;;;;;;4.14;65.81;94722.94;5067789;28;20502;-72
2021/12/13 09:58:44;;;;;;;4.30;3.90;;;;;;;3.73;66.25;94718.28;5067492;28;20515;-72
2021/12/13 10:01:33;;;;;;;5.73;5.23;;;;;;;3.90;66.71;94725.19;5067773;28;20417;-72
2021/12/13 10:04:10;;;;;;;8.70;6.07;;;;;;;3.62;67.13;94721.91;5065949;28;20957;-73
2021/12/13 10:06:45;;;;;;;8.50;7.53;;;;;;;3.75;67.24;94718.94;5067367;28;20904;-73
2021/12/13 10:09:16;;;;;;;17.67;8.03;;;;;;;3.94;67.22;94715.34;5067581;28;20428;-72
2021/12/13 10:11:45;;;;;;;8.17;7.00;;;;;;;3.82;66.54;94721.75;5067551;28;20403;-72
2021/12/13 10:14:13;;;;;;;10.70;9.60;;;;;;;3.60;67.97;94713.50;5067343;28;20467;-72
2021/12/13 10:16:43;;;;;;;13.23;12.07;;;;;;;4.25;65.61;94717.47;5067362;28;20418;-73
2021/12/13 10:19:14;;;;;;;10.03;9.13;;;;;;;4.24;65.55;94715.88;5067123;28;20457;-72
2021/12/13 10:21:43;;;;;;;8.83;7.97;;;;;;;4.09;65.82;94719.00;5067257;28;20396;-72
2021/12/13 10:24:34;;;;;;;9.90;8.90;;;;;;;3.94;66.18;94705.00;5065724;28;20520;-71
2021/12/13 10:27:01;;;;;;;8.40;7.50;;;;;;;4.11;66.23;94704.13;5067304;28;20401;-71
2021/12/13 10:29:29;;;;;;;7.57;6.87;;;;;;;3.68;66.78;94704.97;5065388;28;20421;-72
2021/12/13 10:32:05;;;;;;;5.93;5.30;;;;;;;3.82;66.46;94701.06;5066863;28;20489;-72
2021/12/13 10:34:34;;;;;;;8.30;7.27;;;;;;;3.88;66.20;94700.44;5066735;28;20505;-71
2021/12/13 10:37:16;;;;;;;5.13;4.63;;;;;;;3.58;66.62;94699.91;5066126;28;20432;-73
2021/12/13 10:39:48;;;;;;;10.63;8.13;;;;;;;4.21;65.80;94700.63;5067068;28;20412;-72
2021/12/13 10:42:25;;;;;;;10.90;9.80;;;;;;;4.57;64.39;94695.31;5066362;28;20759;-72
2021/12/13 10:44:52;;;;;;;6.30;5.30;;;;;;;3.59;66.70;94691.19;5065641;28;20417;-72
2021/12/13 10:47:27;;;;;;;9.30;8.07;;;;;;;4.23;65.58;94696.09;5066352;28;20413;-71
2021/12/13 10:49:54;;;;;;;9.27;7.90;;;;;;;4.50;64.98;94687.34;5066160;28;20406;-71
2021/12/13 10:52:26;;;;;;;6.70;6.20;;;;;;;4.17;65.42;94694.94;5064246;28;20519;-72
2021/12/13 10:54:59;;;;;;;9.60;8.60;;;;;;;4.38;65.47;94691.16;5066500;28;20455;-72
2021/12/13 10:57:36;;;;;;;7.47;6.77;;;;;;;4.80;63.97;94688.59;5066194;28;20448;-72
2021/12/13 11:00:12;;;;;;;10.50;7.93;;;;;;;4.56;64.82;94683.31;5064913;28;20413;-72
2021/12/13 11:02:39;;;;;;;6.90;5.20;;;;;;;3.42;66.68;94673.91;5066167;28;20393;-72
2021/12/13 11:05:16;;;;;;;5.80;5.30;;;;;;;3.83;66.69;94677.63;5066332;28;20488;-71
2021/12/13 11:07:43;;;;;;;7.83;7.10;;;;;;;4.16;65.89;94685.56;5064780;28;20428;-72
2021/12/13 11:10:42;;;;;;;9.53;7.47;;;;;;;4.58;64.30;94681.38;5066231;28;20443;-72
2021/12/13 11:13:08;;;;;;;8.93;8.07;;;;;;;4.65;64.45;94682.41;5066228;28;20459;-73
2021/12/13 11:15:37;;;;;;;7.10;6.40;;;;;;;4.54;63.99;94685.25;5065882;28;20457;-72
2021/12/13 11:18:11;;;;;;;9.70;8.57;;;;;;;4.51;64.69;94681.19;5065905;28;20170;-72
2021/12/13 11:20:41;;;;;;;7.93;7.10;;;;;;;4.19;65.60;94671.50;5065527;28;20971;-72
2021/12/13 11:23:08;;;;;;;9.63;7.93;;;;;;;4.98;63.45;94682.47;5065942;28;20926;-71
2021/12/13 11:25:44;;;;;;;9.27;8.40;;;;;;;4.34;65.47;94685.47;5065844;28;20409;-73
2021/12/13 11:28:12;;;;;;;6.53;6.03;;;;;;;4.12;65.65;94676.50;5065955;28;20493;-72
2021/12/13 11:30:39;;;;;;;8.23;7.43;;;;;;;3.86;67.67;94679.88;5065378;28;20509;-72
2021/12/13 11:33:09;;;;;;;9.20;4.50;;;;;;;4.23;65.39;94670.22;5064444;28;20455;-72
2021/12/13 11:35:47;;;;;;;8.03;7.20;;;;;;;4.23;65.27;94678.81;5065244;28;20516;-71
2021/12/13 11:38:51;;;;;;;8.17;7.10;;;;;;;3.92;66.33;94686.22;5063780;28;20428;-71
2021/12/13 11:41:40;;;;;;;9.90;7.50;;;;;;;4.57;64.64;94687.53;5033353;28;20443;-71
2021/12/13 11:44:30;;;;;;;8.50;7.37;;;;;;;4.15;66.54;94688.31;5065229;28;20486;-71
2021/12/13 11:47:19;;;;;;;6.90;6.20;;;;;;;4.16;66.04;94688.16;5063726;28;20413;-71
2021/12/13 11:49:48;;;;;;;6.43;5.83;;;;;;;3.81;66.68;94676.94;5064591;28;20478;-71
2021/12/13 11:52:32;;;;;;;8.30;7.40;;;;;;;3.95;66.94;94690.31;5063980;28;20448;-72
2021/12/13 11:55:23;;;;;;;6.80;5.87;;;;;;;3.68;67.93;94684.28;5065319;28;20449;-71
2021/12/13 11:57:53;;;;;;;9.00;8.10;;;;;;;4.06;66.32;94693.44;5065295;28;20417;-72
2021/12/13 12:00:43;;;;;;;8.20;7.50;;;;;;;3.78;68.31;94694.56;5065277;28;20926;-72
2021/12/13 12:03:46;;;;;;;9.10;8.20;;;;;;;3.89;67.46;94694.31;5063890;28;20424;-72
2021/12/13 12:06:33;;;;;;;7.67;6.93;;;;;;;3.50;68.46;94694.66;5064967;28;20409;-71
2021/12/13 12:09:21;;;;;;;8.67;7.77;;;;;;;3.98;66.94;94695.16;5065344;28;20471;-71
2021/12/13 12:12:03;;;;;;;6.67;6.17;;;;;;;3.32;69.25;94700.66;5065102;28;20398;-71
2021/12/13 12:14:29;;;;;;;8.83;7.57;;;;;;;3.55;68.46;94700.22;5065334;28;21034;-71
2021/12/13 12:16:59;;;;;;;11.27;9.27;;;;;;;3.98;66.90;94697.75;5064957;28;20441;-71
2021/12/13 12:19:30;;;;;;;10.27;8.93;;;;;;;4.04;67.59;94695.38;5064754;28;20492;-72
2021/12/13 12:22:07;;;;;;;6.23;5.63;;;;;;;3.43;69.33;94698.81;5065104;28;20797;-71
2021/12/13 12:24:59;;;;;;;10.50;9.50;;;;;;;4.47;65.94;94691.03;5063530;28;20490;-72
2021/12/13 12:27:35;;;;;;;12.70;10.23;;;;;;;4.45;66.07;94687.81;5063007;28;20429;-73
2021/12/13 12:30:15;;;;;;;11.60;8.83;;;;;;;4.60;65.59;94695.81;5064779;28;20479;-71
2021/12/13 12:32:47;;;;;;;11.03;9.83;;;;;;;4.23;67.47;94701.28;5064930;28;20389;-71
2021/12/13 12:35:23;;;;;;;9.37;8.27;;;;;;;4.12;66.70;94697.19;5063406;28;20453;-71